Time;durP1;ratioP1;P1;durP2;ratioP2;P2;SDS_P1;SDS_P2;PMS_P1;PMS_P2;Temp;Humidity;BMP_temperature;BMP_pressure;BME280_temperature;BME280_humidity;BME280_pressure;Samples;Min_cycle;Max_cycle;Signal;HPM_P1;HPM_P2
2021/01/06 00:00:45;;;;;;;2.35;1.70;;;3.40;85.20;;;;;;5038265;28;20025;-71
2021/01/06 00:03:14;;;;;;;2.17;1.40;;;3.40;85.60;;;;;;5039282;28;20025;-71
2021/01/06 00:05:40;;;;;;;1.73;1.38;;;3.30;87.60;;;;;;5039280;28;20022;-72
2021/01/06 00:08:06;;;;;;;1.63;1.20;;;3.20;86.90;;;;;;5039197;28;20037;-72
2021/01/06 00:10:32;;;;;;;1.52;1.05;;;3.20;87.60;;;;;;5039688;28;20026;-72
2021/01/06 00:12:59;;;;;;;2.22;1.38;;;3.30;87.70;;;;;;5038111;28;20029;-71
2021/01/06 00:15:30;;;;;;;2.83;1.45;;;3.20;88.90;;;;;;5039080;28;20026;-71
2021/01/06 00:17:56;;;;;;;2.03;1.40;;;3.10;88.30;;;;;;5039392;28;20412;-71
2021/01/06 00:20:24;;;;;;;1.77;1.25;;;3.00;89.40;;;;;;5039014;28;20096;-72
2021/01/06 00:22:50;;;;;;;3.33;1.33;;;3.00;89.80;;;;;;5037932;28;20029;-71
2021/01/06 00:25:19;;;;;;;1.60;1.00;;;3.00;89.90;;;;;;5038668;28;20072;-72
2021/01/06 00:27:45;;;;;;;2.15;1.40;;;3.00;90.90;;;;;;5039014;28;20049;-72
2021/01/06 00:30:20;;;;;;;1.48;1.17;;;3.00;91.90;;;;;;5037793;28;20097;-71
2021/01/06 00:32:46;;;;;;;1.63;1.00;;;3.00;91.60;;;;;;5039394;28;20079;-72
2021/01/06 00:35:12;;;;;;;1.52;1.05;;;3.00;91.60;;;;;;5038795;28;20021;-72
2021/01/06 00:37:37;;;;;;;1.30;1.10;;;3.00;92.10;;;;;;5038568;28;20385;-72
2021/01/06 00:40:04;;;;;;;1.15;0.90;;;3.00;92.40;;;;;;5038661;28;20029;-72
2021/01/06 00:42:30;;;;;;;1.70;1.05;;;3.00;93.00;;;;;;5038497;28;20044;-72
2021/01/06 00:44:56;;;;;;;1.42;0.98;;;3.00;93.10;;;;;;5037511;28;20025;-72
2021/01/06 00:47:21;;;;;;;1.80;1.10;;;3.00;93.10;;;;;;5037415;28;20033;-72
2021/01/06 00:49:47;;;;;;;3.17;1.02;;;3.10;92.00;;;;;;5038453;28;20077;-72
2021/01/06 00:52:13;;;;;;;1.75;1.13;;;3.00;91.60;;;;;;5038451;28;20030;-72
2021/01/06 00:54:39;;;;;;;1.55;0.88;;;2.90;91.00;;;;;;5038265;28;20030;-72
2021/01/06 00:57:05;;;;;;;1.15;0.73;;;2.80;90.90;;;;;;5038625;28;20041;-72
2021/01/06 00:59:31;;;;;;;1.02;0.70;;;2.80;91.10;;;;;;5038395;28;20491;-72
2021/01/06 01:01:56;;;;;;;1.50;1.00;;;2.70;90.50;;;;;;5038296;28;20065;-72
2021/01/06 01:04:22;;;;;;;2.67;1.88;;;2.70;90.40;;;;;;5037116;28;20112;-72
2021/01/06 01:06:48;;;;;;;2.42;1.48;;;2.60;90.10;;;;;;5038098;28;20033;-72
2021/01/06 01:09:13;;;;;;;2.85;1.10;;;2.50;90.10;;;;;;5038066;28;20018;-71
2021/01/06 01:11:39;;;;;;;1.65;0.80;;;2.50;90.00;;;;;;5038046;28;20029;-71
2021/01/06 01:14:05;;;;;;;1.13;0.82;;;2.50;89.80;;;;;;5038259;28;20024;-71
2021/01/06 01:16:31;;;;;;;1.10;0.52;;;2.60;89.60;;;;;;5038109;28;20029;-72
2021/01/06 01:18:57;;;;;;;0.45;0.30;;;2.60;88.80;;;;;;5037942;28;20079;-72
2021/01/06 01:21:23;;;;;;;0.70;0.30;;;2.70;88.00;;;;;;5037874;28;20483;-72
2021/01/06 01:23:49;;;;;;;0.98;0.52;;;2.80;85.90;;;;;;5037825;28;20034;-72
2021/01/06 01:26:14;;;;;;;2.28;0.40;;;2.90;89.40;;;;;;5037404;28;20429;-72
2021/01/06 01:28:40;;;;;;;1.00;0.40;;;3.00;89.00;;;;;;5037746;28;20036;-72
2021/01/06 01:31:06;;;;;;;1.45;0.45;;;3.00;89.80;;;;;;5037983;28;20036;-72
2021/01/06 01:33:32;;;;;;;0.77;0.50;;;3.00;90.70;;;;;;5037609;28;20018;-72
2021/01/06 01:35:58;;;;;;;0.43;0.28;;;2.90;91.20;;;;;;5036518;28;20048;-72
2021/01/06 01:38:27;;;;;;;0.52;0.30;;;2.90;90.90;;;;;;5037586;28;20318;-72
2021/01/06 01:41:08;;;;;;;1.88;0.45;;;2.90;91.40;;;;;;5037496;28;20033;-72
2021/01/06 01:43:35;;;;;;;1.40;0.38;;;2.80;91.50;;;;;;5037485;28;20030;-72
2021/01/06 01:46:01;;;;;;;0.80;0.40;;;2.80;91.30;;;;;;5037262;28;20299;-72
2021/01/06 01:48:30;;;;;;;0.68;0.30;;;2.80;91.50;;;;;;5036602;28;20341;-72
2021/01/06 01:51:00;;;;;;;0.93;0.38;;;2.70;91.80;;;;;;5036290;28;20029;-72
2021/01/06 01:53:39;;;;;;;0.70;0.20;;;2.70;92.00;;;;;;5037402;28;20048;-72
2021/01/06 01:56:08;;;;;;;0.20;0.20;;;2.70;91.90;;;;;;5037648;28;20032;-72
2021/01/06 01:58:37;;;;;;;1.00;0.40;;;2.80;92.10;;;;;;5037463;28;20322;-72
2021/01/06 02:01:03;;;;;;;0.40;0.30;;;2.80;92.40;;;;;;5036154;28;20044;-72
2021/01/06 02:03:39;;;;;;;0.60;0.30;;;2.80;92.40;;;;;;5037396;28;20022;-72
2021/01/06 02:06:17;;;;;;;0.30;0.30;;;2.80;92.60;;;;;;5035968;28;20100;-72
2021/01/06 02:08:51;;;;;;;0.88;0.40;;;2.80;92.20;;;;;;5037330;28;20022;-72
2021/01/06 02:11:23;;;;;;;0.50;0.30;;;2.70;92.10;;;;;;5037081;28;20029;-72
2021/01/06 02:13:56;;;;;;;0.70;0.40;;;2.60;92.10;;;;;;5037287;28;20316;-71
2021/01/06 02:16:49;;;;;;;1.02;0.50;;;2.50;92.40;;;;;;5035808;28;20029;-72
2021/01/06 02:19:21;;;;;;;1.00;0.60;;;2.40;92.50;;;;;;5036324;28;20349;-72
2021/01/06 02:21:46;;;;;;;1.75;0.70;;;2.40;93.10;;;;;;5036788;28;20033;-71
2021/01/06 02:24:13;;;;;;;1.23;0.80;;;2.40;93.00;;;;;;5037029;28;20033;-72
2021/01/06 02:26:39;;;;;;;1.02;0.75;;;2.40;92.90;;;;;;5036562;28;20046;-72
2021/01/06 02:29:05;;;;;;;1.15;0.57;;;2.40;92.90;;;;;;5036809;28;20029;-71
2021/01/06 02:31:31;;;;;;;1.40;0.60;;;2.30;92.80;;;;;;5037021;28;20049;-72
2021/01/06 02:33:57;;;;;;;1.00;0.75;;;2.30;92.90;;;;;;5036652;28;20022;-72
2021/01/06 02:36:23;;;;;;;1.08;0.70;;;2.30;92.70;;;;;;5036775;28;20033;-71
2021/01/06 02:38:49;;;;;;;1.15;0.65;;;2.30;92.90;;;;;;5035599;28;20120;-72
2021/01/06 02:41:16;;;;;;;0.90;0.65;;;2.30;93.10;;;;;;5036885;28;20041;-72
2021/01/06 02:43:45;;;;;;;1.08;0.70;;;2.40;92.90;;;;;;5036634;28;20030;-72
2021/01/06 02:46:12;;;;;;;2.17;0.90;;;2.40;92.90;;;;;;5035463;28;20378;-72
2021/01/06 02:48:39;;;;;;;1.48;0.80;;;2.50;92.90;;;;;;5036831;28;20313;-72
2021/01/06 02:51:44;;;;;;;0.90;0.55;;;2.50;93.10;;;;;;5036499;28;20035;-72
2021/01/06 02:54:14;;;;;;;1.40;0.70;;;2.50;93.50;;;;;;5036597;28;20421;-72
2021/01/06 02:56:42;;;;;;;0.88;0.43;;;2.50;93.60;;;;;;5037031;28;20038;-71
2021/01/06 02:59:11;;;;;;;0.95;0.55;;;2.50;93.60;;;;;;5037658;28;20029;-72
2021/01/06 03:01:39;;;;;;;0.70;0.40;;;2.50;93.50;;;;;;5040781;28;20029;-71
2021/01/06 03:04:08;;;;;;;0.60;0.50;;;2.60;93.20;;;;;;5040404;28;20417;-71
2021/01/06 03:06:56;;;;;;;3.33;0.57;;;2.70;93.10;;;;;;5040343;28;20372;-72
2021/01/06 03:09:25;;;;;;;0.82;0.40;;;2.70;93.00;;;;;;5039259;28;20026;-71
2021/01/06 03:11:51;;;;;;;0.68;0.40;;;2.80;93.10;;;;;;5040584;28;20060;-72
2021/01/06 03:14:16;;;;;;;0.82;0.60;;;2.80;93.10;;;;;;5040257;28;20049;-72
2021/01/06 03:16:42;;;;;;;0.52;0.40;;;2.90;93.10;;;;;;5040220;28;20039;-72
2021/01/06 03:19:09;;;;;;;0.70;0.50;;;2.90;93.40;;;;;;5040236;28;20022;-72
2021/01/06 03:21:38;;;;;;;0.82;0.40;;;3.00;93.50;;;;;;5039089;28;20030;-72
2021/01/06 03:24:04;;;;;;;0.50;0.38;;;3.00;93.20;;;;;;5040223;28;20064;-72
2021/01/06 03:26:31;;;;;;;0.60;0.40;;;3.10;93.30;;;;;;5039749;28;20434;-72
2021/01/06 03:28:57;;;;;;;0.90;0.60;;;3.10;93.30;;;;;;5040012;28;20076;-72
2021/01/06 03:31:45;;;;;;;0.82;0.40;;;3.10;93.20;;;;;;5040247;28;20029;-72
2021/01/06 03:34:26;;;;;;;0.70;0.40;;;3.20;92.90;;;;;;5039994;28;20314;-72
2021/01/06 03:37:01;;;;;;;0.50;0.32;;;3.10;92.90;;;;;;5039883;28;20354;-72
2021/01/06 03:39:33;;;;;;;0.68;0.40;;;3.10;92.90;;;;;;5039833;28;20116;-72
2021/01/06 03:42:00;;;;;;;0.93;0.50;;;3.10;93.00;;;;;;5039797;28;20037;-72
2021/01/06 03:44:26;;;;;;;1.15;0.68;;;3.00;91.60;;;;;;5039648;28;20030;-72
2021/01/06 03:47:04;;;;;;;0.77;0.50;;;3.00;91.70;;;;;;5039689;28;20029;-72
2021/01/06 03:49:44;;;;;;;3.05;0.63;;;3.00;92.20;;;;;;5039883;28;20025;-72
2021/01/06 03:52:23;;;;;;;0.98;0.65;;;3.00;92.00;;;;;;5039737;28;20029;-72
2021/01/06 03:54:58;;;;;;;0.82;0.70;;;2.90;92.30;;;;;;5039574;28;20029;-72
2021/01/06 03:57:26;;;;;;;0.85;0.50;;;2.90;92.70;;;;;;5039487;28;20087;-72
2021/01/06 03:59:54;;;;;;;1.20;0.68;;;2.80;92.80;;;;;;5039434;28;20447;-72
2021/01/06 04:02:30;;;;;;;1.10;0.60;;;2.90;92.80;;;;;;5039376;28;20030;-72
2021/01/06 04:05:15;;;;;;;0.60;0.40;;;2.90;93.10;;;;;;5039554;28;20037;-71
2021/01/06 04:07:48;;;;;;;0.88;0.60;;;2.90;93.00;;;;;;5039368;28;20017;-72
2021/01/06 04:10:17;;;;;;;1.30;0.55;;;2.90;92.80;;;;;;5038656;28;20059;-72
2021/01/06 04:12:43;;;;;;;1.92;0.32;;;2.90;93.10;;;;;;5039344;28;20028;-72
2021/01/06 04:15:11;;;;;;;0.52;0.40;;;2.90;93.20;;;;;;5039403;28;20029;-71
2021/01/06 04:17:43;;;;;;;0.57;0.40;;;2.90;93.30;;;;;;5039075;28;20029;-72
2021/01/06 04:20:29;;;;;;;0.60;0.30;;;2.90;93.10;;;;;;5039116;28;20033;-72
2021/01/06 04:22:59;;;;;;;0.90;0.60;;;2.90;93.20;;;;;;5039170;28;20025;-71
2021/01/06 04:25:31;;;;;;;0.90;0.50;;;2.80;93.30;;;;;;5038881;28;20050;-72
2021/01/06 04:28:16;;;;;;;0.80;0.50;;;2.80;93.40;;;;;;5038858;28;20096;-72
2021/01/06 04:30:45;;;;;;;0.77;0.40;;;2.80;93.70;;;;;;5038751;28;20044;-72
2021/01/06 04:33:45;;;;;;;0.75;0.40;;;2.80;93.80;;;;;;5039049;28;20313;-72
2021/01/06 04:36:21;;;;;;;0.60;0.30;;;2.80;93.80;;;;;;5038470;28;20037;-72
2021/01/06 04:38:49;;;;;;;1.15;0.55;;;2.80;93.90;;;;;;5037730;28;20363;-72
2021/01/06 04:41:36;;;;;;;0.63;0.50;;;2.90;93.90;;;;;;5038631;28;20033;-71
2021/01/06 04:44:31;;;;;;;0.85;0.50;;;2.80;94.00;;;;;;5038640;28;20414;-72
2021/01/06 04:47:19;;;;;;;1.67;0.47;;;2.60;93.70;;;;;;5038463;28;20087;-72
2021/01/06 04:50:22;;;;;;;1.10;0.75;;;2.50;94.50;;;;;;5038516;28;20028;-72
2021/01/06 04:53:17;;;;;;;2.28;1.10;;;2.40;94.90;;;;;;5038466;28;20318;-72
2021/01/06 04:56:04;;;;;;;1.30;0.80;;;2.30;95.20;;;;;;5037430;28;20030;-71
2021/01/06 04:58:30;;;;;;;0.93;0.70;;;2.30;95.30;;;;;;5037263;28;20036;-71
2021/01/06 05:01:34;;;;;;;1.00;0.60;;;2.30;95.60;;;;;;5038535;28;20025;-71
2021/01/06 05:04:31;;;;;;;0.98;0.60;;;2.30;95.80;;;;;;5038174;28;20017;-71
2021/01/06 05:07:25;;;;;;;1.20;0.90;;;2.30;95.30;;;;;;5037459;28;20096;-71
2021/01/06 05:10:04;;;;;;;0.80;0.47;;;2.30;94.70;;;;;;5037077;28;20410;-71
2021/01/06 05:12:49;;;;;;;1.00;0.50;;;2.30;94.40;;;;;;5038179;28;20029;-71
2021/01/06 05:15:36;;;;;;;0.70;0.60;;;2.20;95.00;;;;;;5038063;28;20025;-71
2021/01/06 05:18:04;;;;;;;2.15;0.55;;;2.20;95.40;;;;;;5038558;28;20025;-71
2021/01/06 05:20:30;;;;;;;1.83;0.60;;;2.10;95.30;;;;;;5037871;28;20033;-72
2021/01/06 05:22:55;;;;;;;0.90;0.68;;;2.10;95.20;;;;;;5037867;28;20022;-72
2021/01/06 05:25:21;;;;;;;1.67;0.88;;;2.20;95.40;;;;;;5037520;28;20385;-71
2021/01/06 05:27:47;;;;;;;2.58;1.77;;;2.30;95.50;;;;;;5036666;28;20368;-71
2021/01/06 05:30:24;;;;;;;1.98;1.45;;;2.30;95.20;;;;;;5037714;28;20023;-71
2021/01/06 05:32:54;;;;;;;2.78;1.50;;;2.40;94.70;;;;;;5037971;28;20034;-71
2021/01/06 05:35:23;;;;;;;1.50;1.27;;;2.50;94.50;;;;;;5037540;28;20079;-71
2021/01/06 05:37:56;;;;;;;4.05;1.83;;;2.50;94.30;;;;;;5037542;28;20029;-71
2021/01/06 05:40:23;;;;;;;2.40;1.65;;;2.60;93.80;;;;;;5037827;28;20036;-71
2021/01/06 05:42:52;;;;;;;2.42;1.67;;;2.70;93.90;;;;;;5037806;28;20029;-72
2021/01/06 05:45:21;;;;;;;2.55;1.92;;;2.70;93.80;;;;;;5037655;28;20030;-72
2021/01/06 05:47:50;;;;;;;4.22;2.95;;;2.70;93.70;;;;;;5037315;28;20036;-72
2021/01/06 05:50:37;;;;;;;2.15;1.65;;;2.70;94.00;;;;;;5037392;28;20083;-72
2021/01/06 05:53:20;;;;;;;2.92;1.70;;;2.70;94.20;;;;;;5037179;28;20033;-71
2021/01/06 05:55:48;;;;;;;2.30;1.95;;;2.50;94.90;;;;;;5037591;28;20041;-71
2021/01/06 05:58:28;;;;;;;1.98;1.40;;;2.50;95.30;;;;;;5037216;28;20414;-71
2021/01/06 06:01:12;;;;;;;2.42;1.80;;;2.50;95.00;;;;;;5037434;28;20322;-71
2021/01/06 06:04:16;;;;;;;2.72;1.60;;;2.50;94.90;;;;;;5037154;28;20041;-72
2021/01/06 06:07:04;;;;;;;2.90;1.35;;;2.50;94.40;;;;;;5037269;28;20064;-71
2021/01/06 06:10:01;;;;;;;1.98;1.40;;;2.50;94.30;;;;;;5037024;28;20108;-71
2021/01/06 06:12:44;;;;;;;5.28;2.22;;;2.50;93.60;;;;;;5037138;28;20105;-71
2021/01/06 06:15:42;;;;;;;5.18;3.03;;;2.40;92.80;;;;;;5036946;28;20025;-72
2021/01/06 06:18:27;;;;;;;4.28;3.05;;;2.40;92.90;;;;;;5037248;28;20075;-71
2021/01/06 06:21:21;;;;;;;3.70;2.53;;;2.30;93.20;;;;;;5037171;28;20087;-71
2021/01/06 06:24:03;;;;;;;33.60;8.68;;;2.30;93.20;;;;;;5035475;28;20026;-71
2021/01/06 06:26:32;;;;;;;4.55;2.55;;;2.30;93.00;;;;;;5036553;28;20048;-71
2021/01/06 06:29:20;;;;;;;4.70;2.10;;;2.20;93.50;;;;;;5036770;28;20022;-71
2021/01/06 06:31:58;;;;;;;4.35;2.33;;;2.20;93.20;;;;;;5037148;28;20088;-71
2021/01/06 06:34:39;;;;;;;2.80;1.50;;;2.10;92.90;;;;;;5036230;28;20022;-71
2021/01/06 06:37:13;;;;;;;2.65;1.77;;;2.10;92.90;;;;;;5036942;28;20026;-71
2021/01/06 06:39:38;;;;;;;2.30;1.10;;;2.00;93.30;;;;;;5037133;28;20389;-71
2021/01/06 06:42:27;;;;;;;2.55;1.58;;;1.90;93.80;;;;;;5036927;28;20065;-71
2021/01/06 06:45:03;;;;;;;7.22;4.70;;;1.80;94.00;;;;;;5036848;28;20063;-72
2021/01/06 06:47:48;;;;;;;4.35;2.17;;;1.80;94.50;;;;;;5036831;28;20040;-71
2021/01/06 06:50:35;;;;;;;6.78;1.70;;;1.90;94.70;;;;;;5036571;28;20401;-71
2021/01/06 06:53:31;;;;;;;2.13;1.30;;;2.00;94.60;;;;;;5036800;28;20120;-72
2021/01/06 06:56:14;;;;;;;1.73;1.30;;;2.20;94.20;;;;;;5035566;28;20025;-72
2021/01/06 06:59:08;;;;;;;2.25;1.17;;;2.20;93.30;;;;;;5035434;28;20264;-71
2021/01/06 07:01:45;;;;;;;2.53;1.20;;;2.30;93.60;;;;;;5036089;28;20029;-71
2021/01/06 07:04:24;;;;;;;1.90;1.30;;;2.30;93.70;;;;;;5036674;28;20018;-71
2021/01/06 07:06:55;;;;;;;2.28;1.38;;;2.30;94.10;;;;;;5036572;28;20022;-71
2021/01/06 07:09:27;;;;;;;3.00;1.33;;;2.30;94.40;;;;;;5036629;28;20021;-71
2021/01/06 07:12:00;;;;;;;1.52;1.05;;;2.30;94.40;;;;;;5036634;28;20379;-71
2021/01/06 07:14:27;;;;;;;1.48;1.10;;;2.40;94.50;;;;;;5036258;28;20028;-71
2021/01/06 07:16:53;;;;;;;1.38;0.95;;;2.40;94.60;;;;;;5036531;28;20076;-71
2021/01/06 07:19:27;;;;;;;1.17;0.80;;;2.40;94.50;;;;;;5035244;28;20065;-71
2021/01/06 07:22:17;;;;;;;1.40;0.90;;;2.40;94.30;;;;;;5036279;28;20418;-71
2021/01/06 07:24:50;;;;;;;1.98;0.80;;;2.40;94.20;;;;;;5035726;28;20042;-72
2021/01/06 07:27:16;;;;;;;1.00;0.60;;;2.50;93.90;;;;;;5036453;28;20330;-71
2021/01/06 07:29:50;;;;;;;0.80;0.60;;;2.40;93.70;;;;;;5035143;28;20026;-71
2021/01/06 07:32:17;;;;;;;1.10;0.80;;;2.50;93.60;;;;;;5036326;28;20021;-71
2021/01/06 07:34:52;;;;;;;1.20;0.50;;;2.50;93.50;;;;;;5036178;28;20028;-71
2021/01/06 07:37:34;;;;;;;0.63;0.47;;;2.50;93.70;;;;;;5036497;28;20314;-71
2021/01/06 07:40:17;;;;;;;0.60;0.47;;;2.40;93.80;;;;;;5035065;28;20088;-71
2021/01/06 07:43:11;;;;;;;0.73;0.50;;;2.40;93.80;;;;;;5035344;28;20355;-71
2021/01/06 07:45:51;;;;;;;0.70;0.50;;;2.50;93.60;;;;;;5036352;28;20040;-71
2021/01/06 07:48:17;;;;;;;0.80;0.55;;;2.50;93.60;;;;;;5039552;28;20060;-71
2021/01/06 07:51:05;;;;;;;1.10;0.60;;;2.60;93.70;;;;;;5039632;28;20053;-71
2021/01/06 07:54:03;;;;;;;0.80;0.50;;;2.70;93.30;;;;;;5039022;28;20033;-71
2021/01/06 07:56:39;;;;;;;0.88;0.60;;;2.70;92.90;;;;;;5038678;28;20440;-71
2021/01/06 07:59:21;;;;;;;1.45;0.70;;;2.70;91.40;;;;;;5039538;28;20048;-72
2021/01/06 08:01:55;;;;;;;0.47;0.38;;;2.80;91.30;;;;;;5039456;28;20025;-71
2021/01/06 08:04:32;;;;;;;0.80;0.57;;;2.90;91.50;;;;;;5039448;28;20017;-72
2021/01/06 08:07:05;;;;;;;0.60;0.43;;;3.00;91.70;;;;;;5039563;28;20033;-72
2021/01/06 08:09:42;;;;;;;1.00;0.60;;;3.00;91.90;;;;;;5038532;28;20357;-71
2021/01/06 08:12:37;;;;;;;0.90;0.50;;;3.00;91.70;;;;;;5039319;28;20025;-71
2021/01/06 08:15:09;;;;;;;0.40;0.30;;;3.10;91.70;;;;;;5039164;28;20025;-72
2021/01/06 08:18:02;;;;;;;0.40;0.30;;;3.20;90.80;;;;;;5038092;28;20087;-71
2021/01/06 08:20:36;;;;;;;1.25;0.52;;;3.20;90.80;;;;;;5038109;28;20037;-72
2021/01/06 08:23:14;;;;;;;1.02;0.50;;;3.20;90.80;;;;;;5038010;28;20029;-72
2021/01/06 08:25:41;;;;;;;1.27;0.70;;;3.20;91.80;;;;;;5038875;28;20364;-72
2021/01/06 08:28:18;;;;;;;1.38;0.90;;;3.20;91.60;;;;;;5039138;28;20041;-72
2021/01/06 08:30:44;;;;;;;1.50;1.10;;;3.20;91.00;;;;;;5038995;28;20321;-71
2021/01/06 08:33:13;;;;;;;2.40;1.50;;;3.20;91.70;;;;;;5038862;28;20104;-71
2021/01/06 08:35:44;;;;;;;2.00;1.50;;;3.20;92.10;;;;;;5038744;28;20028;-71
2021/01/06 08:38:27;;;;;;;2.30;1.83;;;3.10;92.00;;;;;;5038740;28;20029;-72
2021/01/06 08:40:54;;;;;;;3.08;1.83;;;3.20;92.20;;;;;;5038864;28;20029;-71
2021/01/06 08:43:20;;;;;;;2.75;1.90;;;3.20;91.50;;;;;;5038635;28;20034;-71
2021/01/06 08:45:58;;;;;;;2.80;1.92;;;3.20;91.90;;;;;;5038849;28;20303;-72
2021/01/06 08:48:35;;;;;;;2.88;2.08;;;3.10;92.90;;;;;;5038740;28;20067;-71
2021/01/06 08:51:07;;;;;;;2.42;2.03;;;3.10;92.60;;;;;;5038830;28;20052;-72
2021/01/06 08:53:36;;;;;;;3.53;1.65;;;3.10;92.70;;;;;;5038457;28;20100;-72
2021/01/06 08:56:25;;;;;;;3.83;2.00;;;3.10;92.60;;;;;;5038787;28;20108;-71
2021/01/06 08:58:53;;;;;;;1.77;0.90;;;3.20;92.60;;;;;;5038524;28;20080;-72
2021/01/06 09:01:29;;;;;;;2.00;1.67;;;3.20;91.30;;;;;;5038341;28;20048;-71
2021/01/06 09:04:13;;;;;;;2.30;1.52;;;3.20;91.70;;;;;;5038664;28;20104;-72
2021/01/06 09:07:09;;;;;;;2.30;1.60;;;3.20;91.80;;;;;;5038145;28;20033;-72
2021/01/06 09:09:43;;;;;;;4.03;1.60;;;3.30;92.20;;;;;;5037678;28;20337;-72
2021/01/06 09:12:56;;;;;;;2.20;1.50;;;3.40;92.10;;;;;;5038448;28;20350;-72
2021/01/06 09:15:28;;;;;;;3.10;2.45;;;3.40;92.30;;;;;;5036941;28;20151;-72
2021/01/06 09:18:13;;;;;;;3.30;2.13;;;3.30;93.00;;;;;;5038062;28;20034;-72
2021/01/06 09:20:57;;;;;;;5.55;4.88;;;3.40;93.40;;;;;;5037952;28;20104;-72
2021/01/06 09:23:23;;;;;;;2.50;1.75;;;3.50;92.60;;;;;;5038007;28;20028;-71
2021/01/06 09:25:49;;;;;;;2.10;1.17;;;3.60;91.00;;;;;;5037662;28;20041;-72
2021/01/06 09:28:16;;;;;;;1.25;0.80;;;3.60;90.20;;;;;;5037906;28;20033;-72
2021/01/06 09:30:45;;;;;;;1.40;1.00;;;3.70;89.60;;;;;;5037740;28;20104;-72
2021/01/06 09:33:27;;;;;;;1.75;1.10;;;3.70;90.50;;;;;;5037934;28;20022;-72
2021/01/06 09:35:54;;;;;;;1.40;0.75;;;3.80;90.00;;;;;;5037788;28;20028;-72
2021/01/06 09:38:27;;;;;;;1.15;0.82;;;3.90;89.40;;;;;;5037598;28;20049;-72
2021/01/06 09:40:58;;;;;;;2.55;0.70;;;3.90;89.50;;;;;;5037572;28;20060;-72
2021/01/06 09:43:35;;;;;;;1.15;0.70;;;4.00;89.20;;;;;;5037704;28;20029;-72
2021/01/06 09:46:14;;;;;;;0.22;0.20;;;4.10;88.70;;;;;;5037504;28;20025;-72
2021/01/06 09:48:43;;;;;;;0.57;0.28;;;4.10;88.10;;;;;;5037378;28;20029;-72
2021/01/06 09:51:10;;;;;;;0.43;0.30;;;4.20;88.30;;;;;;5037423;28;20029;-72
2021/01/06 09:53:36;;;;;;;0.52;0.30;;;4.30;87.60;;;;;;5037340;28;20030;-72
2021/01/06 09:56:02;;;;;;;0.60;0.40;;;4.40;85.80;;;;;;5036321;28;20112;-72
2021/01/06 09:58:40;;;;;;;0.93;0.60;;;4.40;85.50;;;;;;5037218;28;20041;-72
2021/01/06 10:01:18;;;;;;;0.70;0.38;;;4.40;86.50;;;;;;5037705;28;20035;-72
2021/01/06 10:03:47;;;;;;;2.28;0.30;;;4.40;88.30;;;;;;5037368;28;20037;-72
2021/01/06 10:06:32;;;;;;;0.28;0.20;;;4.50;86.70;;;;;;5037129;28;20299;-72
2021/01/06 10:09:25;;;;;;;1.50;0.40;;;4.50;85.70;;;;;;5038694;28;20455;-72
2021/01/06 10:11:59;;;;;;;1.63;0.88;;;4.50;85.00;;;;;;5050425;28;20112;-72
2021/01/06 10:14:54;;;;;;;0.90;0.60;;;4.60;86.20;;;;;;5056938;28;20025;-72
2021/01/06 10:17:27;;;;;;;0.50;0.40;;;4.70;87.00;;;;;;5056987;28;20025;-72
2021/01/06 10:20:21;;;;;;;0.45;0.30;;;4.90;86.00;;;;;;5056849;28;20024;-72
2021/01/06 10:22:57;;;;;;;0.65;0.40;;;4.90;84.90;;;;;;5056533;28;20088;-72
2021/01/06 10:25:44;;;;;;;0.75;0.40;;;4.90;85.90;;;;;;5056515;28;20037;-72
2021/01/06 10:28:22;;;;;;;1.52;0.80;;;4.80;85.70;;;;;;5056935;28;20048;-72
2021/01/06 10:31:03;;;;;;;2.53;1.50;;;4.70;85.90;;;;;;5056674;28;20530;-71
2021/01/06 10:33:29;;;;;;;1.02;0.68;;;4.60;85.70;;;;;;5056643;28;20336;-72
2021/01/06 10:35:58;;;;;;;1.63;0.90;;;4.60;85.00;;;;;;5056648;28;20371;-72
2021/01/06 10:38:38;;;;;;;1.25;0.80;;;4.60;85.90;;;;;;5056883;28;20021;-72
2021/01/06 10:41:19;;;;;;;1.58;1.10;;;4.70;85.30;;;;;;5056745;28;20417;-72
2021/01/06 10:43:44;;;;;;;2.95;2.22;;;4.60;85.40;;;;;;5056597;28;20079;-72
2021/01/06 10:46:33;;;;;;;15.75;8.50;;;4.50;86.00;;;;;;5056754;28;20033;-72
2021/01/06 10:48:59;;;;;;;39.80;23.73;;;4.70;86.30;;;;;;5056656;28;20044;-72
2021/01/06 10:51:49;;;;;;;14.02;5.63;;;4.70;85.90;;;;;;5056515;28;20025;-72
2021/01/06 10:54:29;;;;;;;7.35;2.20;;;4.70;84.70;;;;;;5056715;28;20139;-72
2021/01/06 10:56:57;;;;;;;2.03;0.80;;;4.70;84.40;;;;;;5057102;28;20305;-72
2021/01/06 10:59:22;;;;;;;5.28;2.45;;;4.60;83.70;;;;;;5056427;28;20103;-72
2021/01/06 11:02:07;;;;;;;1.60;1.00;;;4.50;85.10;;;;;;5056410;28;20111;-72
2021/01/06 11:04:45;;;;;;;1.08;0.70;;;4.50;85.10;;;;;;5056424;28;20084;-72
2021/01/06 11:07:31;;;;;;;1.00;0.70;;;4.40;84.80;;;;;;5055258;28;20025;-72
2021/01/06 11:10:19;;;;;;;1.20;0.60;;;4.40;84.60;;;;;;5056473;28;20021;-72
2021/01/06 11:13:29;;;;;;;1.70;1.00;;;4.40;87.40;;;;;;5055280;28;20028;-72
2021/01/06 11:16:06;;;;;;;1.75;1.08;;;4.60;86.00;;;;;;5055401;28;20056;-72
2021/01/06 11:18:40;;;;;;;1.90;1.17;;;4.60;84.80;;;;;;5056473;28;20021;-72
2021/01/06 11:21:17;;;;;;;1.77;1.30;;;4.50;85.40;;;;;;5059011;28;20421;-72
2021/01/06 11:23:48;;;;;;;2.08;1.63;;;4.60;86.50;;;;;;5060147;28;20421;-72
2021/01/06 11:26:31;;;;;;;3.30;2.00;;;4.60;86.10;;;;;;5059792;28;20437;-72
2021/01/06 11:29:21;;;;;;;2.17;1.30;;;4.60;86.60;;;;;;5060115;28;20448;-72
2021/01/06 11:31:52;;;;;;;1.95;1.15;;;4.60;85.90;;;;;;5060008;28;20385;-72
2021/01/06 11:34:19;;;;;;;1.15;0.80;;;4.60;85.20;;;;;;5060010;28;20021;-72
2021/01/06 11:36:56;;;;;;;1.00;0.70;;;4.60;86.90;;;;;;5060330;28;20025;-72
2021/01/06 11:39:28;;;;;;;1.58;1.05;;;4.70;85.70;;;;;;5060085;28;20079;-72
2021/01/06 11:41:56;;;;;;;1.20;0.82;;;4.70;84.40;;;;;;5059706;28;20417;-72
2021/01/06 11:44:40;;;;;;;2.38;1.40;;;4.60;85.70;;;;;;5059812;28;20060;-72
2021/01/06 11:47:09;;;;;;;3.75;1.63;;;4.60;85.10;;;;;;5059557;28;20353;-72
2021/01/06 11:49:35;;;;;;;2.20;1.33;;;4.60;86.20;;;;;;5059607;28;20032;-72
2021/01/06 11:52:12;;;;;;;2.17;1.58;;;4.50;86.40;;;;;;5059598;28;20025;-72
2021/01/06 11:54:46;;;;;;;2.45;1.80;;;4.50;86.70;;;;;;5059731;28;20021;-72
2021/01/06 11:57:41;;;;;;;4.22;1.80;;;4.50;86.20;;;;;;5060642;28;20485;-72
2021/01/06 12:00:16;;;;;;;3.72;2.35;;;4.40;87.30;;;;;;5059538;28;20439;-72
2021/01/06 12:02:55;;;;;;;2.83;2.13;;;4.40;87.10;;;;;;5059434;28;20029;-72
2021/01/06 12:05:27;;;;;;;3.10;2.35;;;4.40;87.30;;;;;;5059595;28;20064;-72
2021/01/06 12:08:22;;;;;;;3.47;2.22;;;4.40;86.70;;;;;;5059404;28;20052;-72
2021/01/06 12:10:57;;;;;;;3.42;2.20;;;4.40;87.30;;;;;;5059561;28;20021;-72
2021/01/06 12:13:52;;;;;;;5.13;1.90;;;4.30;87.20;;;;;;5058115;28;20111;-72
2021/01/06 12:16:39;;;;;;;3.45;2.55;;;4.30;87.20;;;;;;5059346;28;20108;-72
2021/01/06 12:19:16;;;;;;;4.93;2.50;;;4.20;87.50;;;;;;5059090;28;20040;-72
2021/01/06 12:22:07;;;;;;;3.17;1.90;;;4.30;88.40;;;;;;5058936;28;20061;-72
2021/01/06 12:24:33;;;;;;;3.15;1.83;;;4.30;87.70;;;;;;5059033;28;20444;-72
2021/01/06 12:27:20;;;;;;;2.20;1.20;;;4.40;88.30;;;;;;5057721;28;20053;-72
2021/01/06 12:29:45;;;;;;;5.38;4.47;;;4.50;88.50;;;;;;5057866;28;20443;-72
2021/01/06 12:32:18;;;;;;;3.33;2.50;;;4.50;88.90;;;;;;5058140;28;20024;-72
2021/01/06 12:34:44;;;;;;;4.30;3.45;;;4.60;89.60;;;;;;5058831;28;20082;-72
2021/01/06 12:37:10;;;;;;;3.92;2.90;;;4.70;86.20;;;;;;5058754;28;20032;-72
2021/01/06 12:39:48;;;;;;;4.38;3.15;;;4.80;87.00;;;;;;5058747;28;20325;-72
2021/01/06 12:42:13;;;;;;;3.35;2.47;;;4.90;86.50;;;;;;5059025;28;20029;-72
2021/01/06 12:44:45;;;;;;;3.80;2.55;;;4.90;87.80;;;;;;5057496;28;20044;-72
2021/01/06 12:47:25;;;;;;;4.28;2.50;;;4.90;86.30;;;;;;5057511;28;20025;-72
2021/01/06 12:49:51;;;;;;;2.85;2.40;;;4.80;86.30;;;;;;5058536;28;20381;-72
2021/01/06 12:52:21;;;;;;;1.70;1.42;;;4.70;86.00;;;;;;5058728;28;20056;-72
2021/01/06 12:54:51;;;;;;;2.30;1.42;;;4.60;86.20;;;;;;5058391;28;20075;-72
2021/01/06 12:57:29;;;;;;;2.70;1.98;;;4.40;86.10;;;;;;5058304;28;20033;-72
2021/01/06 13:00:01;;;;;;;2.88;2.30;;;4.40;86.70;;;;;;5057288;28;20029;-72
2021/01/06 13:02:32;;;;;;;2.90;1.80;;;4.40;87.50;;;;;;5058363;28;20025;-72
2021/01/06 13:05:24;;;;;;;1.80;1.25;;;4.40;87.30;;;;;;5058298;28;20025;-72
2021/01/06 13:07:54;;;;;;;2.53;1.60;;;4.40;85.80;;;;;;5058113;28;20059;-72
2021/01/06 13:10:39;;;;;;;3.15;1.98;;;4.40;87.40;;;;;;5058333;28;20120;-72
2021/01/06 13:13:31;;;;;;;3.03;2.38;;;4.40;87.10;;;;;;5058093;28;20425;-72
2021/01/06 13:15:58;;;;;;;3.67;2.30;;;4.40;87.80;;;;;;5058223;28;20104;-72
2021/01/06 13:18:45;;;;;;;4.07;2.90;;;4.40;89.00;;;;;;5058347;28;20496;-72
2021/01/06 13:21:31;;;;;;;2.92;2.38;;;4.40;88.50;;;;;;5057909;28;20035;-72
2021/01/06 13:23:56;;;;;;;3.13;2.53;;;4.30;89.30;;;;;;5057921;28;20404;-72
2021/01/06 13:26:45;;;;;;;3.35;2.95;;;4.20;89.20;;;;;;5057595;28;20069;-72
2021/01/06 13:29:17;;;;;;;5.05;3.70;;;4.20;88.40;;;;;;5057724;28;20041;-72
2021/01/06 13:32:13;;;;;;;4.07;3.13;;;4.20;89.30;;;;;;5057668;28;20487;-72
2021/01/06 13:34:46;;;;;;;6.27;3.50;;;4.20;89.60;;;;;;5057802;28;20440;-72
2021/01/06 13:37:12;;;;;;;4.38;3.70;;;4.20;89.60;;;;;;5057659;28;20102;-72
2021/01/06 13:39:49;;;;;;;4.63;3.58;;;4.20;88.90;;;;;;5057624;28;20065;-72